createdAt,value
2023-03-31T00:01:42.167Z,3.02
2023-03-31T00:04:14.318Z,3.03
2023-03-31T00:06:44.244Z,3.03
2023-03-31T00:09:14.224Z,3.02
2023-03-31T00:11:42.446Z,3.02
2023-03-31T00:14:16.415Z,3.02
2023-03-31T00:16:45.030Z,3.02
2023-03-31T00:19:18.408Z,3.02
2023-03-31T00:21:49.351Z,3.01
2023-03-31T00:24:18.840Z,2.99
2023-03-31T00:26:47.014Z,2.96
2023-03-31T00:29:15.522Z,2.96
2023-03-31T00:31:43.901Z,2.96
2023-03-31T00:34:12.363Z,2.96
2023-03-31T00:36:46.027Z,2.96
2023-03-31T00:39:18.729Z,2.97
2023-03-31T00:41:47.255Z,2.98
2023-03-31T00:44:23.064Z,2.99
2023-03-31T00:47:10.853Z,2.99
2023-03-31T00:49:45.361Z,2.98
2023-03-31T00:52:19.710Z,2.99
2023-03-31T00:54:49.328Z,3.01
2023-03-31T00:57:17.470Z,3.01
2023-03-31T00:59:48.214Z,3.03
2023-03-31T01:02:17.422Z,3.04
2023-03-31T01:04:55.579Z,3.05
2023-03-31T01:07:31.143Z,3.05
2023-03-31T01:10:00.938Z,3.02
2023-03-31T01:12:29.841Z,2.98
2023-03-31T01:14:58.003Z,2.91
2023-03-31T01:17:28.376Z,2.85
2023-03-31T01:20:12.595Z,2.79
2023-03-31T01:23:21.474Z,2.74
2023-03-31T01:26:27.972Z,2.70
2023-03-31T01:29:24.308Z,2.67
2023-03-31T01:32:05.892Z,2.65
2023-03-31T01:35:05.186Z,2.63
2023-03-31T01:37:33.424Z,2.61
2023-03-31T01:40:11.330Z,2.62
2023-03-31T01:42:43.326Z,2.63
2023-03-31T01:45:33.856Z,2.60
2023-03-31T01:48:33.090Z,2.56
2023-03-31T01:51:06.570Z,2.55
2023-03-31T01:53:42.118Z,2.54
2023-03-31T01:56:18.787Z,2.52
2023-03-31T01:58:52.302Z,2.50
2023-03-31T02:01:37.495Z,2.49
2023-03-31T02:04:18.267Z,2.50
2023-03-31T02:06:53.702Z,2.52
2023-03-31T02:09:36.450Z,2.51
2023-03-31T02:12:07.117Z,2.48
2023-03-31T02:14:38.059Z,2.46
2023-03-31T02:17:30.905Z,2.44
2023-03-31T02:20:06.396Z,2.43
2023-03-31T02:22:36.730Z,2.40
2023-03-31T02:25:05.470Z,2.33
2023-03-31T02:27:42.344Z,2.27
2023-03-31T02:30:11.401Z,2.28
2023-03-31T02:32:44.642Z,2.30
2023-03-31T02:35:17.777Z,2.30
2023-03-31T02:37:46.562Z,2.25
2023-03-31T02:40:20.843Z,2.22
2023-03-31T02:42:49.140Z,2.21
2023-03-31T02:45:40.935Z,2.19
2023-03-31T02:48:31.072Z,2.20
2023-03-31T02:51:09.018Z,2.18
2023-03-31T02:54:06.344Z,2.16
2023-03-31T02:57:08.270Z,2.17
2023-03-31T03:00:06.167Z,2.20
2023-03-31T03:03:26.999Z,2.24
2023-03-31T03:06:16.803Z,2.25
2023-03-31T03:09:22.730Z,2.22
2023-03-31T03:12:08.559Z,2.15
2023-03-31T03:14:53.752Z,2.09
2023-03-31T03:17:38.958Z,2.10
2023-03-31T03:20:11.850Z,2.12
2023-03-31T03:22:40.805Z,2.16
2023-03-31T03:25:11.658Z,2.18
2023-03-31T03:27:40.647Z,2.16
2023-03-31T03:30:11.161Z,2.14
2023-03-31T03:32:39.811Z,2.08
2023-03-31T03:35:08.326Z,2.06
2023-03-31T03:37:36.389Z,2.07
2023-03-31T03:40:06.182Z,2.09
2023-03-31T03:42:35.356Z,2.10
2023-03-31T03:45:05.843Z,2.09
2023-03-31T03:47:36.265Z,2.07
2023-03-31T03:50:04.685Z,2.09
2023-03-31T03:52:34.440Z,2.09
2023-03-31T03:55:03.252Z,2.07
2023-03-31T03:57:31.705Z,2.10
2023-03-31T03:59:59.821Z,2.15
2023-03-31T04:02:28.982Z,2.20
2023-03-31T04:04:57.140Z,2.21
2023-03-31T04:07:25.296Z,2.15
2023-03-31T04:09:55.869Z,2.10
2023-03-31T04:12:26.288Z,2.09
2023-03-31T04:14:54.935Z,2.10
2023-03-31T04:17:34.796Z,2.13
2023-03-31T04:20:06.091Z,2.16
2023-03-31T04:22:47.144Z,2.17
2023-03-31T04:25:16.798Z,2.15
2023-03-31T04:27:50.752Z,2.16
2023-03-31T04:30:24.472Z,2.18
2023-03-31T04:33:01.610Z,2.19
2023-03-31T04:35:49.873Z,2.19
2023-03-31T04:38:21.585Z,2.17
2023-03-31T04:40:51.321Z,2.16
2023-03-31T04:43:20.339Z,2.13
2023-03-31T04:45:48.278Z,2.16
2023-03-31T04:48:19.325Z,2.20
2023-03-31T04:50:47.989Z,2.25
2023-03-31T04:53:16.052Z,2.28
2023-03-31T04:55:45.873Z,2.29
2023-03-31T04:58:13.984Z,2.27
2023-03-31T05:00:44.189Z,2.24
2023-03-31T05:03:13.359Z,2.24
2023-03-31T05:05:41.887Z,2.29
2023-03-31T05:08:10.756Z,2.34
2023-03-31T05:10:49.522Z,2.40
2023-03-31T05:13:17.552Z,2.47
2023-03-31T05:15:48.200Z,2.50
2023-03-31T05:18:18.240Z,2.53
2023-03-31T05:20:46.764Z,2.55
2023-03-31T05:23:14.710Z,2.57
2023-03-31T05:25:43.667Z,2.59
2023-03-31T05:28:11.762Z,2.59
2023-03-31T05:30:40.705Z,2.61
2023-03-31T05:33:09.118Z,2.62
2023-03-31T05:35:38.021Z,2.64
2023-03-31T05:38:06.625Z,2.66
2023-03-31T05:40:36.008Z,2.67
2023-03-31T05:43:04.092Z,2.64
2023-03-31T05:45:33.150Z,2.63
2023-03-31T05:48:03.896Z,2.65
2023-03-31T05:50:32.832Z,2.69
2023-03-31T05:53:01.198Z,2.73
2023-03-31T05:55:33.610Z,2.78
2023-03-31T05:58:02.084Z,2.78
2023-03-31T06:00:31.695Z,2.76
2023-03-31T06:03:11.809Z,2.78
2023-03-31T06:05:43.289Z,2.83
2023-03-31T06:08:13.493Z,2.87
2023-03-31T06:10:43.236Z,2.92
2023-03-31T06:13:14.089Z,2.98
2023-03-31T06:15:59.439Z,3.03
2023-03-31T06:18:31.845Z,3.09
2023-03-31T06:21:02.141Z,3.17
2023-03-31T06:23:31.020Z,3.22
2023-03-31T06:26:04.441Z,3.27
2023-03-31T06:28:36.404Z,3.31
2023-03-31T06:31:10.108Z,3.37
2023-03-31T06:33:39.879Z,3.46
2023-03-31T06:36:09.705Z,3.54
2023-03-31T06:38:39.049Z,3.64
2023-03-31T06:41:11.568Z,3.75
2023-03-31T06:43:39.795Z,3.85
2023-03-31T06:46:09.513Z,3.94
2023-03-31T06:48:39.012Z,4.04
2023-03-31T06:51:13.082Z,4.14
2023-03-31T06:53:41.570Z,4.22
2023-03-31T06:56:10.226Z,4.31
2023-03-31T06:58:40.224Z,4.40
2023-03-31T07:01:11.575Z,4.46
2023-03-31T07:03:46.089Z,4.48
2023-03-31T07:06:15.267Z,4.55
2023-03-31T07:08:43.780Z,4.64
2023-03-31T07:11:12.664Z,4.73
2023-03-31T07:13:42.129Z,4.83
2023-03-31T07:16:13.943Z,4.94
2023-03-31T07:18:47.667Z,5.02
2023-03-31T07:21:15.674Z,5.10
2023-03-31T07:23:44.542Z,5.16
2023-03-31T07:26:18.027Z,5.23
2023-03-31T07:28:46.386Z,5.26
2023-03-31T07:31:21.750Z,5.28
2023-03-31T07:33:49.784Z,5.29
2023-03-31T07:36:20.992Z,5.38
2023-03-31T07:38:49.873Z,5.50
2023-03-31T07:41:19.679Z,5.62
2023-03-31T07:43:51.227Z,5.70
2023-03-31T07:46:21.806Z,5.78
2023-03-31T07:48:50.761Z,5.84
2023-03-31T07:51:21.200Z,5.87
2023-03-31T07:53:52.414Z,5.90
2023-03-31T07:56:24.480Z,5.98
2023-03-31T07:58:57.556Z,6.08
2023-03-31T08:01:26.811Z,6.16
2023-03-31T08:03:59.302Z,6.21
2023-03-31T08:06:29.118Z,6.22
2023-03-31T08:08:57.864Z,6.19
2023-03-31T08:11:26.278Z,6.18
2023-03-31T08:13:54.707Z,6.18
2023-03-31T08:16:24.138Z,6.19
2023-03-31T08:18:52.921Z,6.22
2023-03-31T08:21:23.694Z,6.24
2023-03-31T08:23:56.347Z,6.22
2023-03-31T08:26:28.203Z,6.23
2023-03-31T08:28:57.793Z,6.27
2023-03-31T08:31:27.554Z,6.30
2023-03-31T08:33:57.497Z,6.33
2023-03-31T08:36:28.887Z,6.35
2023-03-31T08:38:57.444Z,6.41
2023-03-31T08:41:49.400Z,6.46
2023-03-31T08:44:35.694Z,6.51
2023-03-31T08:47:08.703Z,6.53
2023-03-31T08:49:42.352Z,6.54
2023-03-31T08:52:15.837Z,6.59
2023-03-31T08:54:50.826Z,6.69
2023-03-31T08:57:55.296Z,6.75
2023-03-31T09:00:23.640Z,6.83
2023-03-31T09:03:04.346Z,6.89
2023-03-31T09:06:12.927Z,6.91
2023-03-31T09:08:46.640Z,6.86
2023-03-31T09:11:24.970Z,6.81
2023-03-31T09:14:18.866Z,6.78
2023-03-31T09:17:14.364Z,6.78
2023-03-31T09:19:50.066Z,6.81
2023-03-31T09:22:22.815Z,6.86
2023-03-31T09:25:01.024Z,6.89
2023-03-31T09:27:31.919Z,6.93
2023-03-31T09:30:20.851Z,7.03
2023-03-31T09:32:53.983Z,7.13
2023-03-31T09:35:26.214Z,7.19
2023-03-31T09:37:54.700Z,7.29
2023-03-31T09:40:25.502Z,7.39
2023-03-31T09:43:02.142Z,7.45
2023-03-31T09:45:30.806Z,7.47
2023-03-31T09:48:07.236Z,7.50
2023-03-31T09:50:40.052Z,7.49
2023-03-31T09:53:08.122Z,7.46
2023-03-31T09:55:53.760Z,7.48
2023-03-31T09:58:22.389Z,7.54
2023-03-31T10:01:06.420Z,7.61
2023-03-31T10:03:53.839Z,7.68
2023-03-31T10:06:26.396Z,7.73
2023-03-31T10:08:58.308Z,7.75
2023-03-31T10:11:29.532Z,7.73
2023-03-31T10:14:18.624Z,7.75
2023-03-31T10:16:54.167Z,7.80
2023-03-31T10:19:30.936Z,7.85
2023-03-31T10:22:03.476Z,7.89
2023-03-31T10:24:42.756Z,7.91
2023-03-31T10:27:30.147Z,7.94
2023-03-31T10:30:06.580Z,7.94
2023-03-31T10:32:42.979Z,7.92
2023-03-31T10:35:42.103Z,7.93
2023-03-31T10:38:23.580Z,7.97
2023-03-31T10:40:55.974Z,7.95
2023-03-31T10:43:37.147Z,7.91
2023-03-31T10:46:05.582Z,7.89
2023-03-31T10:48:38.830Z,7.91
2023-03-31T10:51:15.809Z,7.95
2023-03-31T10:53:58.968Z,7.96
2023-03-31T10:56:38.662Z,7.95
2023-03-31T10:59:20.991Z,7.95
2023-03-31T11:02:00.666Z,7.95
2023-03-31T11:04:47.215Z,7.95
2023-03-31T11:07:41.638Z,7.95
2023-03-31T11:10:47.967Z,7.94
2023-03-31T11:13:37.004Z,7.96
2023-03-31T11:16:33.313Z,8.00
2023-03-31T11:19:18.559Z,8.08
2023-03-31T11:22:17.639Z,8.14
2023-03-31T11:25:15.668Z,8.20
2023-03-31T11:27:54.648Z,8.28
2023-03-31T11:30:26.858Z,8.36
2023-03-31T11:33:08.939Z,8.44
2023-03-31T11:36:06.137Z,8.53
2023-03-31T11:38:59.008Z,8.59
2023-03-31T11:41:52.071Z,8.61
2023-03-31T11:44:23.122Z,8.61
2023-03-31T11:46:55.274Z,8.66
2023-03-31T11:49:31.143Z,8.70
2023-03-31T11:52:03.892Z,8.70
2023-03-31T11:54:41.295Z,8.68
2023-03-31T11:57:50.983Z,8.64
2023-03-31T12:00:28.361Z,8.62
2023-03-31T12:03:34.130Z,8.60
2023-03-31T12:06:13.305Z,8.59
2023-03-31T12:08:54.741Z,8.62
2023-03-31T12:11:37.469Z,8.66
2023-03-31T12:14:22.106Z,8.71
2023-03-31T12:16:56.300Z,8.76
2023-03-31T12:19:41.098Z,8.82
2023-03-31T12:22:20.168Z,8.87
2023-03-31T12:24:48.752Z,8.85
2023-03-31T12:27:31.372Z,8.84
2023-03-31T12:30:15.005Z,8.84
2023-03-31T12:32:51.046Z,8.82
2023-03-31T12:35:57.455Z,8.80
2023-03-31T12:38:44.558Z,8.80
2023-03-31T12:41:18.695Z,8.76
2023-03-31T12:43:59.597Z,8.75
2023-03-31T12:46:32.095Z,8.74
2023-03-31T12:49:04.414Z,8.75
2023-03-31T12:52:12.732Z,8.78
2023-03-31T12:54:54.755Z,8.81
2023-03-31T12:57:25.503Z,8.85
2023-03-31T13:00:12.726Z,8.88
2023-03-31T13:02:42.230Z,8.91
2023-03-31T13:05:47.123Z,8.89
2023-03-31T13:08:50.758Z,8.88
2023-03-31T13:11:23.552Z,8.90
2023-03-31T13:14:00.855Z,8.92
2023-03-31T13:16:32.013Z,8.95
2023-03-31T13:19:00.945Z,9.01
2023-03-31T13:21:29.152Z,9.02
2023-03-31T13:24:01.611Z,8.98
2023-03-31T13:26:35.842Z,8.99
2023-03-31T13:29:14.543Z,9.00
2023-03-31T13:32:01.886Z,8.98
2023-03-31T13:34:38.076Z,8.96
2023-03-31T13:37:12.744Z,8.94
2023-03-31T13:40:10.416Z,8.92
2023-03-31T13:43:01.360Z,8.80
2023-03-31T13:46:03.944Z,8.73
2023-03-31T13:49:10.141Z,8.67
2023-03-31T13:52:01.691Z,8.53
2023-03-31T13:54:42.069Z,8.47
2023-03-31T13:57:32.445Z,8.41
2023-03-31T14:00:29.155Z,8.32
2023-03-31T14:03:13.987Z,8.29
2023-03-31T14:05:45.468Z,8.26
2023-03-31T14:08:25.317Z,8.23
2023-03-31T14:10:56.814Z,8.17
2023-03-31T14:13:26.103Z,8.09
2023-03-31T14:15:58.615Z,8.04
2023-03-31T14:18:33.891Z,7.96
2023-03-31T14:21:08.175Z,7.92
2023-03-31T14:23:58.488Z,7.79
2023-03-31T14:26:38.394Z,7.72
2023-03-31T14:29:13.902Z,7.74
2023-03-31T14:31:48.210Z,7.75
2023-03-31T14:34:25.250Z,7.74
2023-03-31T14:37:01.691Z,7.74
2023-03-31T14:39:36.585Z,7.68
2023-03-31T14:42:08.522Z,7.54
2023-03-31T14:44:40.186Z,7.36
2023-03-31T14:47:24.376Z,7.25
2023-03-31T14:50:16.470Z,7.21
2023-03-31T14:52:49.446Z,7.21
2023-03-31T14:55:18.125Z,7.23
2023-03-31T14:57:47.258Z,7.23
2023-03-31T15:00:19.282Z,7.22
2023-03-31T15:02:51.661Z,7.22
2023-03-31T15:05:30.548Z,7.21
2023-03-31T15:08:11.624Z,7.14
2023-03-31T15:10:42.127Z,7.07
2023-03-31T15:13:20.462Z,6.95
2023-03-31T15:15:49.261Z,6.84
2023-03-31T15:18:17.849Z,6.80
2023-03-31T15:20:51.451Z,6.83
2023-03-31T15:23:29.492Z,6.82
2023-03-31T15:26:09.180Z,6.85
2023-03-31T15:29:41.747Z,6.74
2023-03-31T15:32:56.915Z,6.64
2023-03-31T15:35:50.064Z,6.58
2023-03-31T15:38:27.895Z,6.54
2023-03-31T15:40:57.379Z,6.51
2023-03-31T15:43:46.686Z,6.45
2023-03-31T15:46:50.543Z,6.42
2023-03-31T15:49:26.334Z,6.44
2023-03-31T15:51:55.107Z,6.41
2023-03-31T15:54:42.242Z,6.39
2023-03-31T15:57:13.597Z,6.40
2023-03-31T16:02:55.433Z,6.33
2023-03-31T16:05:58.466Z,6.32
2023-03-31T16:08:47.652Z,6.33
2023-03-31T16:11:22.862Z,6.33
2023-03-31T16:13:34.596Z,6.37
2023-03-31T16:14:04.604Z,6.33
2023-03-31T16:16:33.566Z,6.30
2023-03-31T16:19:10.407Z,6.29
2023-03-31T16:21:50.654Z,6.29
2023-03-31T16:24:22.000Z,6.28
2023-03-31T16:26:51.921Z,6.27
2023-03-31T16:29:23.132Z,6.26
2023-03-31T16:31:51.453Z,6.26
2023-03-31T16:34:20.155Z,6.26
2023-03-31T16:36:51.481Z,6.26
2023-03-31T16:39:30.762Z,6.24
2023-03-31T16:41:58.958Z,6.21
2023-03-31T16:44:30.787Z,6.19
2023-03-31T16:46:59.124Z,6.20
2023-03-31T16:49:36.681Z,6.24
2023-03-31T16:52:09.022Z,6.25
2023-03-31T16:54:37.867Z,6.24
2023-03-31T16:57:08.934Z,6.22
2023-03-31T16:59:37.993Z,6.21
2023-03-31T17:02:13.308Z,6.21
2023-03-31T17:04:43.187Z,6.23
2023-03-31T17:07:15.290Z,6.24
2023-03-31T17:09:43.947Z,6.27
2023-03-31T17:12:13.712Z,6.31
2023-03-31T17:14:45.776Z,6.35
2023-03-31T17:17:20.265Z,6.37
2023-03-31T17:19:57.236Z,6.39
2023-03-31T17:22:26.351Z,6.39
2023-03-31T17:24:58.445Z,6.42
2023-03-31T17:27:29.286Z,6.47
2023-03-31T17:32:33.590Z,6.48
2023-03-31T17:35:05.035Z,6.46
2023-03-31T17:37:34.694Z,6.49
2023-03-31T17:40:04.874Z,6.50
2023-03-31T17:42:33.135Z,6.44
2023-03-31T17:45:02.152Z,6.41
2023-03-31T17:47:31.242Z,6.39
2023-03-31T17:49:59.839Z,6.37
2023-03-31T17:52:27.947Z,6.36
2023-03-31T17:54:57.745Z,6.32
2023-03-31T17:57:28.847Z,6.31
2023-03-31T18:00:01.090Z,6.34
2023-03-31T18:02:30.653Z,6.37
2023-03-31T19:04:54.502Z,6.72
2023-03-31T19:07:27.379Z,6.76
2023-03-31T19:09:56.648Z,6.77
2023-03-31T19:12:29.159Z,6.79
2023-03-31T19:14:58.492Z,6.78
2023-03-31T19:17:29.153Z,6.80
2023-03-31T19:20:00.718Z,6.84
2023-03-31T19:22:33.787Z,6.89
2023-03-31T19:25:05.274Z,6.93
2023-03-31T19:27:34.228Z,6.97
2023-03-31T19:30:02.377Z,7.02
2023-03-31T19:32:33.292Z,7.05
2023-03-31T19:35:02.091Z,7.09
2023-03-31T19:37:30.763Z,7.11
2023-03-31T19:39:59.139Z,7.13
2023-03-31T19:42:27.095Z,7.15
2023-03-31T19:44:55.419Z,7.15
2023-03-31T19:47:23.558Z,7.16
2023-03-31T19:49:51.623Z,7.17
2023-03-31T19:52:20.312Z,7.17
2023-03-31T19:54:48.913Z,7.15
2023-03-31T19:57:16.924Z,7.12
2023-03-31T19:59:44.871Z,7.11
2023-03-31T20:02:21.040Z,7.13
2023-03-31T20:04:53.235Z,7.15
2023-03-31T20:07:21.187Z,7.19
2023-03-31T20:09:49.362Z,7.20
2023-03-31T20:12:20.435Z,7.20
2023-03-31T20:14:49.970Z,7.21
2023-03-31T20:17:29.281Z,7.22
2023-03-31T20:20:05.107Z,7.23
2023-03-31T20:22:37.818Z,7.25
2023-03-31T20:25:13.526Z,7.26
2023-03-31T20:27:56.963Z,7.26
2023-03-31T20:30:31.377Z,7.26
2023-03-31T20:33:26.677Z,7.24
2023-03-31T20:36:23.155Z,7.24
2023-03-31T20:38:57.489Z,7.23
2023-03-31T20:41:28.972Z,7.23
2023-03-31T20:44:15.644Z,7.24
2023-03-31T20:46:55.800Z,7.24
2023-03-31T20:49:55.920Z,7.22
2023-03-31T20:52:27.909Z,7.19
2023-03-31T20:54:57.175Z,7.15
2023-03-31T20:57:27.695Z,7.12
2023-03-31T21:00:11.516Z,7.10
2023-03-31T21:02:42.229Z,7.10
2023-03-31T21:05:10.748Z,7.09
2023-03-31T21:07:38.933Z,7.09
2023-03-31T21:10:13.608Z,7.09
2023-03-31T21:12:46.416Z,7.08
2023-03-31T21:15:14.894Z,7.09
2023-03-31T21:17:48.060Z,7.11
2023-03-31T21:20:16.694Z,7.12
2023-03-31T21:22:44.742Z,7.13
2023-03-31T21:25:13.478Z,7.12
2023-03-31T21:27:42.118Z,7.11
2023-03-31T21:30:12.133Z,7.10
2023-03-31T21:32:44.573Z,7.07
2023-03-31T21:35:13.199Z,7.03
2023-03-31T21:37:41.813Z,7.00
2023-03-31T21:40:14.431Z,6.96
2023-03-31T21:42:46.506Z,6.94
2023-03-31T21:45:20.007Z,6.92
2023-03-31T21:47:57.189Z,6.88
2023-03-31T21:50:27.502Z,6.85
2023-03-31T21:52:59.959Z,6.83
2023-03-31T21:55:28.995Z,6.80
2023-03-31T21:58:03.339Z,6.76
2023-03-31T22:00:34.271Z,6.73
2023-03-31T22:03:22.064Z,6.69
2023-03-31T22:05:51.581Z,6.65
2023-03-31T22:08:20.889Z,6.62
2023-03-31T22:10:52.221Z,6.60
2023-03-31T22:13:24.264Z,6.59
2023-03-31T22:16:00.718Z,6.60
2023-03-31T22:18:32.163Z,6.59
2023-03-31T22:21:07.063Z,6.60
2023-03-31T22:23:39.422Z,6.61
2023-03-31T22:26:08.487Z,6.62
2023-03-31T22:28:36.932Z,6.63
2023-03-31T22:31:08.073Z,6.63
2023-03-31T22:33:42.225Z,6.62
2023-03-31T22:36:10.989Z,6.63
2023-03-31T22:38:41.310Z,6.64
2023-03-31T22:41:10.197Z,6.64
2023-03-31T22:43:38.802Z,6.65
2023-03-31T22:46:07.686Z,6.66
2023-03-31T22:48:35.785Z,6.64
2023-03-31T22:51:06.325Z,6.65
2023-03-31T22:53:38.481Z,6.66
2023-03-31T22:56:14.847Z,6.67
2023-03-31T22:58:45.739Z,6.69
2023-03-31T23:01:19.224Z,6.69
2023-03-31T23:03:48.278Z,6.70
2023-03-31T23:06:16.665Z,6.71
2023-03-31T23:08:49.076Z,6.72
2023-03-31T23:11:20.668Z,6.73
2023-03-31T23:13:53.236Z,6.75
2023-03-31T23:16:23.852Z,6.76
2023-03-31T23:18:53.747Z,6.76
2023-03-31T23:21:29.665Z,6.77
2023-03-31T23:24:01.340Z,6.78
2023-03-31T23:26:32.316Z,6.80
2023-03-31T23:29:06.197Z,6.82
2023-03-31T23:31:34.399Z,6.83
2023-03-31T23:34:03.074Z,6.84
2023-03-31T23:36:31.905Z,6.86
2023-03-31T23:39:06.651Z,6.87
2023-03-31T23:41:40.699Z,6.88
2023-03-31T23:44:14.875Z,6.89
2023-03-31T23:46:49.803Z,6.87
2023-03-31T23:49:20.436Z,6.87
2023-03-31T23:51:49.147Z,6.87
2023-03-31T23:54:17.326Z,6.87
2023-03-31T23:56:46.182Z,6.88
2023-03-31T23:59:15.813Z,6.87
